createdAt,value
2022-09-04T00:02:42.319Z,17.99
2022-09-04T00:08:03.039Z,17.98
2022-09-04T00:13:30.965Z,17.95
2022-09-04T00:18:38.355Z,17.90
2022-09-04T00:23:55.883Z,17.87
2022-09-04T00:29:06.823Z,17.85
2022-09-04T00:34:23.827Z,17.84
2022-09-04T00:39:37.570Z,17.83
2022-09-04T00:45:01.984Z,17.86
2022-09-04T00:50:07.339Z,17.89
2022-09-04T00:55:14.845Z,17.89
2022-09-04T01:00:22.122Z,17.86
2022-09-04T01:05:36.238Z,17.81
2022-09-04T01:10:51.584Z,17.74
2022-09-04T01:16:01.720Z,17.69
2022-09-04T01:21:24.346Z,17.68
2022-09-04T01:26:48.146Z,17.72
2022-09-04T01:32:01.570Z,17.76
2022-09-04T01:37:48.221Z,17.75
2022-09-04T01:43:11.341Z,17.68
2022-09-04T01:48:21.629Z,17.60
2022-09-04T01:53:32.775Z,17.61
2022-09-04T01:58:44.455Z,17.65
2022-09-04T02:03:57.934Z,17.64
2022-09-04T02:09:21.959Z,17.64
2022-09-04T02:14:40.316Z,17.64
2022-09-04T02:19:42.172Z,17.62
2022-09-04T02:25:02.530Z,17.64
2022-09-04T02:30:10.556Z,17.64
2022-09-04T02:35:24.253Z,17.64
2022-09-04T02:40:49.702Z,17.60
2022-09-04T02:46:03.297Z,17.57
2022-09-04T02:51:23.847Z,17.58
2022-09-04T02:57:09.329Z,17.56
2022-09-04T03:02:21.484Z,17.55
2022-09-04T03:07:33.263Z,17.55
2022-09-04T03:13:02.602Z,17.56
2022-09-04T03:18:31.971Z,17.55
2022-09-04T03:24:13.977Z,17.55
2022-09-04T03:29:16.304Z,17.48
2022-09-04T03:34:49.783Z,17.40
2022-09-04T03:40:10.603Z,17.35
2022-09-04T03:45:37.125Z,17.33
2022-09-04T03:50:57.472Z,17.30
2022-09-04T03:56:36.549Z,17.26
2022-09-04T04:01:41.353Z,17.25
2022-09-04T04:06:53.812Z,17.29
2022-09-04T04:12:14.666Z,17.28
2022-09-04T04:18:13.495Z,17.25
2022-09-04T04:23:34.211Z,17.20
2022-09-04T04:29:00.043Z,17.19
2022-09-04T04:34:04.659Z,17.17
2022-09-04T04:39:44.850Z,17.15
2022-09-04T04:45:30.199Z,17.13
2022-09-04T04:51:05.423Z,17.07
2022-09-04T04:56:46.265Z,17.02
2022-09-04T05:02:10.979Z,17.02
2022-09-04T05:07:37.365Z,17.02
2022-09-04T05:12:54.257Z,17.07
2022-09-04T05:18:06.705Z,17.09
2022-09-04T05:23:17.311Z,17.10
2022-09-04T05:28:40.843Z,17.16
2022-09-04T05:33:48.713Z,17.21
2022-09-04T05:38:58.070Z,17.27
2022-09-04T05:44:21.642Z,17.32
2022-09-04T05:49:32.479Z,17.40
2022-09-04T05:54:51.403Z,17.48
2022-09-04T06:00:16.306Z,17.58
2022-09-04T06:05:39.744Z,17.68
2022-09-04T06:10:59.468Z,17.75
2022-09-04T06:16:25.820Z,17.85
2022-09-04T06:22:02.286Z,17.93
2022-09-04T06:27:20.994Z,18.02
2022-09-04T06:32:37.823Z,18.13
2022-09-04T06:37:57.670Z,18.25
2022-09-04T06:43:29.633Z,18.38
2022-09-04T06:49:00.976Z,18.53
2022-09-04T06:54:26.722Z,18.58
2022-09-04T06:59:39.970Z,18.67
2022-09-04T07:05:09.968Z,18.77
2022-09-04T07:10:20.748Z,18.90
2022-09-04T07:15:31.644Z,18.97
2022-09-04T07:20:48.809Z,19.00
2022-09-04T07:26:13.773Z,18.95
2022-09-04T07:31:35.288Z,19.09
2022-09-04T07:37:23.462Z,19.19
2022-09-04T07:42:53.994Z,19.25
2022-09-04T07:48:09.501Z,19.26
2022-09-04T07:53:45.061Z,19.20
2022-09-04T07:58:55.453Z,19.16
2022-09-04T08:04:38.318Z,19.17
2022-09-04T08:09:58.733Z,19.21
2022-09-04T08:15:03.963Z,19.24
2022-09-04T08:20:24.599Z,19.30
2022-09-04T08:25:55.901Z,19.47
2022-09-04T08:31:11.435Z,19.62
2022-09-04T08:36:45.402Z,19.73
2022-09-04T08:42:06.030Z,19.74
2022-09-04T08:47:14.211Z,19.70
2022-09-04T08:52:50.892Z,19.67
2022-09-04T08:58:14.522Z,19.68
2022-09-04T09:03:56.940Z,19.76
2022-09-04T09:09:31.325Z,19.94
2022-09-04T09:14:36.469Z,20.16
2022-09-04T09:20:00.734Z,20.34
2022-09-04T09:25:14.539Z,20.48
2022-09-04T09:30:24.851Z,20.63
2022-09-04T09:35:58.110Z,20.79
2022-09-04T09:41:18.148Z,20.96
2022-09-04T09:46:41.307Z,21.13
2022-09-04T09:52:07.657Z,21.29
2022-09-04T09:57:36.652Z,21.43
2022-09-04T10:03:09.473Z,21.52
2022-09-04T10:08:35.773Z,21.60
2022-09-04T10:13:59.510Z,21.71
2022-09-04T10:19:19.734Z,21.82
2022-09-04T10:24:27.372Z,21.86
2022-09-04T10:29:48.285Z,21.90
2022-09-04T10:34:56.326Z,21.96
2022-09-04T10:40:56.161Z,22.03
2022-09-04T10:46:09.809Z,22.12
2022-09-04T10:51:49.801Z,22.23
2022-09-04T10:56:54.581Z,22.34
2022-09-04T11:02:22.500Z,22.44
2022-09-04T11:07:34.566Z,22.54
2022-09-04T11:12:51.501Z,22.58
2022-09-04T11:18:02.030Z,22.62
2022-09-04T11:23:31.306Z,22.62
2022-09-04T11:29:18.082Z,22.63
2022-09-04T11:34:20.221Z,22.65
2022-09-04T11:39:34.347Z,22.67
2022-09-04T11:44:48.137Z,22.69
2022-09-04T11:50:19.218Z,22.68
2022-09-04T11:55:40.714Z,22.74
2022-09-04T12:01:00.547Z,22.82
2022-09-04T12:06:49.532Z,22.89
2022-09-04T12:12:01.092Z,22.84
2022-09-04T12:17:10.585Z,22.87
2022-09-04T12:22:36.469Z,22.94
2022-09-04T12:27:59.459Z,23.01
2022-09-04T12:33:19.920Z,23.12
2022-09-04T12:38:47.459Z,23.20
2022-09-04T12:44:08.823Z,23.19
2022-09-04T12:49:49.113Z,23.11
2022-09-04T12:55:23.068Z,23.11
2022-09-04T13:00:40.798Z,23.13
2022-09-04T13:06:22.426Z,23.15
2022-09-04T13:11:31.238Z,23.14
2022-09-04T13:17:02.227Z,23.18
2022-09-04T13:22:24.071Z,23.21
2022-09-04T13:27:28.725Z,23.17
2022-09-04T13:32:55.871Z,23.17
2022-09-04T13:38:33.962Z,23.20
2022-09-04T13:43:49.302Z,23.24
2022-09-04T13:48:57.891Z,23.21
2022-09-04T13:54:05.252Z,23.19
2022-09-04T13:59:09.828Z,23.23
2022-09-04T14:04:26.712Z,23.22
2022-09-04T14:09:33.044Z,23.25
2022-09-04T14:15:19.528Z,23.21
2022-09-04T14:20:40.691Z,23.17
2022-09-04T14:25:57.204Z,23.20
2022-09-04T14:31:27.591Z,23.21
2022-09-04T14:36:43.157Z,23.24
2022-09-04T14:42:03.772Z,23.30
2022-09-04T14:47:27.191Z,23.36
2022-09-04T14:52:40.104Z,23.37
2022-09-04T14:57:57.803Z,23.40
2022-09-04T15:03:18.286Z,23.45
2022-09-04T15:08:39.999Z,23.45
2022-09-04T15:13:48.203Z,23.50
2022-09-04T15:19:05.152Z,23.44
2022-09-04T15:24:15.140Z,23.28
2022-09-04T15:29:27.434Z,23.21
2022-09-04T15:34:30.534Z,23.19
2022-09-04T15:39:48.642Z,23.18
2022-09-04T15:44:50.854Z,23.18
2022-09-04T15:50:08.071Z,23.20
2022-09-04T15:55:31.227Z,23.19
2022-09-04T16:00:38.781Z,23.14
2022-09-04T16:05:53.397Z,23.10
2022-09-04T16:10:58.098Z,23.04
2022-09-04T16:16:09.163Z,22.99
2022-09-04T16:21:22.514Z,22.94
2022-09-04T16:26:29.145Z,22.90
2022-09-04T16:31:35.006Z,22.85
2022-09-04T16:37:05.226Z,22.82
2022-09-04T16:42:22.980Z,22.80
2022-09-04T16:47:41.286Z,22.78
2022-09-04T16:52:46.207Z,22.74
2022-09-04T16:58:17.243Z,22.66
2022-09-04T17:03:24.876Z,22.58
2022-09-04T17:08:41.905Z,22.52
2022-09-04T17:13:58.679Z,22.47
2022-09-04T17:19:13.577Z,22.40
2022-09-04T17:29:22.447Z,22.32
2022-09-04T17:30:09.538Z,22.21
2022-09-04T17:40:44.397Z,22.17
2022-09-04T17:41:36.341Z,22.09
2022-09-04T17:47:06.886Z,22.01
2022-09-04T17:52:08.946Z,21.94
2022-09-04T17:57:51.233Z,21.88
2022-09-04T18:03:21.050Z,21.81
2022-09-04T18:08:32.943Z,21.73
2022-09-04T18:14:07.053Z,21.65
2022-09-04T18:19:15.036Z,21.58
2022-09-04T18:24:21.651Z,21.50
2022-09-04T18:32:36.315Z,21.44
2022-09-04T18:37:19.828Z,21.37
2022-09-04T18:43:18.204Z,21.30
2022-09-04T18:50:28.382Z,21.24
2022-09-04T18:51:54.967Z,21.20
2022-09-04T18:57:06.580Z,21.16
2022-09-04T19:02:30.902Z,21.10
2022-09-04T19:07:55.677Z,21.04
2022-09-04T19:13:22.507Z,20.96
2022-09-04T19:18:45.367Z,20.90
2022-09-04T19:23:58.866Z,20.83
2022-09-04T19:29:13.686Z,20.79
2022-09-04T19:34:18.370Z,20.72
2022-09-04T19:45:57.247Z,20.63
2022-09-04T19:46:11.432Z,20.59
2022-09-04T19:53:18.246Z,20.54
2022-09-04T19:56:01.475Z,20.51
2022-09-04T20:01:13.198Z,20.46
2022-09-04T20:06:36.680Z,20.42
2022-09-04T20:11:59.341Z,20.38
2022-09-04T20:17:31.102Z,20.34
2022-09-04T20:22:45.565Z,20.30
2022-09-04T20:27:54.323Z,20.25
2022-09-04T20:33:11.516Z,20.21
2022-09-04T20:38:23.334Z,20.16
2022-09-04T20:43:53.375Z,20.15
2022-09-04T20:52:50.731Z,20.11
2022-09-04T20:54:47.997Z,20.09
2022-09-04T21:03:06.794Z,20.05
2022-09-04T21:06:07.141Z,20.01
2022-09-04T21:11:38.956Z,19.98
2022-09-04T21:16:59.373Z,19.93
2022-09-04T21:22:20.202Z,19.87
2022-09-04T21:27:53.239Z,19.84
2022-09-04T21:33:27.552Z,19.80
2022-09-04T21:38:27.333Z,19.78
2022-09-04T21:44:06.297Z,19.75
2022-09-04T21:49:32.813Z,19.68
2022-09-04T21:55:58.094Z,19.62
2022-09-04T22:02:38.447Z,19.54
2022-09-04T22:08:51.134Z,19.51
2022-09-04T22:13:34.894Z,19.46
2022-09-04T22:17:43.078Z,19.46
2022-09-04T22:23:32.672Z,19.41
2022-09-04T22:29:26.675Z,19.39
2022-09-04T22:35:15.566Z,19.33
2022-09-04T22:40:22.406Z,19.27
2022-09-04T22:45:50.629Z,19.27
2022-09-04T22:50:52.422Z,19.28
2022-09-04T22:56:15.727Z,19.21
2022-09-04T23:01:36.641Z,19.16
2022-09-04T23:12:30.320Z,19.13
2022-09-04T23:13:47.726Z,19.09
2022-09-04T23:21:24.958Z,19.03
2022-09-04T23:26:48.001Z,18.97
2022-09-04T23:29:49.918Z,18.91
2022-09-04T23:35:36.727Z,18.86
2022-09-04T23:40:38.539Z,18.83
2022-09-04T23:46:01.736Z,18.82
2022-09-04T23:51:18.083Z,18.76
2022-09-04T23:56:29.874Z,18.71
